sensor_id;sensor_type;location;lat;lon;timestamp;temperature;humidity
16263;DHT22;8239;48.594;8.598;2023-11-19T00:00:59;7.90;99.90
16263;DHT22;8239;48.594;8.598;2023-11-19T00:03:27;7.90;99.90
16263;DHT22;8239;48.594;8.598;2023-11-19T00:05:54;7.90;99.90
16263;DHT22;8239;48.594;8.598;2023-11-19T00:08:21;7.80;99.90
16263;DHT22;8239;48.594;8.598;2023-11-19T00:10:50;7.90;99.90
16263;DHT22;8239;48.594;8.598;2023-11-19T00:13:19;7.90;99.90
16263;DHT22;8239;48.594;8.598;2023-11-19T00:15:45;7.80;99.90
16263;DHT22;8239;48.594;8.598;2023-11-19T00:18:13;7.90;99.90
16263;DHT22;8239;48.594;8.598;2023-11-19T00:20:39;7.80;99.90
16263;DHT22;8239;48.594;8.598;2023-11-19T00:23:07;7.90;99.90
16263;DHT22;8239;48.594;8.598;2023-11-19T00:25:33;7.90;99.90
16263;DHT22;8239;48.594;8.598;2023-11-19T00:28:00;7.90;99.90
16263;DHT22;8239;48.594;8.598;2023-11-19T00:30:29;7.80;99.90
16263;DHT22;8239;48.594;8.598;2023-11-19T00:32:56;7.80;99.90
16263;DHT22;8239;48.594;8.598;2023-11-19T00:35:23;7.80;99.90
16263;DHT22;8239;48.594;8.598;2023-11-19T00:37:50;7.90;99.90
16263;DHT22;8239;48.594;8.598;2023-11-19T00:40:19;7.80;99.90
16263;DHT22;8239;48.594;8.598;2023-11-19T00:42:48;7.80;99.90
16263;DHT22;8239;48.594;8.598;2023-11-19T00:45:15;7.90;99.90
16263;DHT22;8239;48.594;8.598;2023-11-19T00:47:44;7.80;99.90
16263;DHT22;8239;48.594;8.598;2023-11-19T00:50:11;7.80;99.90
16263;DHT22;8239;48.594;8.598;2023-11-19T00:52:38;7.90;99.90
16263;DHT22;8239;48.594;8.598;2023-11-19T00:55:06;7.80;99.90
16263;DHT22;8239;48.594;8.598;2023-11-19T00:57:33;7.90;99.90
16263;DHT22;8239;48.594;8.598;2023-11-19T01:00:01;7.90;99.90
16263;DHT22;8239;48.594;8.598;2023-11-19T01:02:34;7.90;99.90
16263;DHT22;8239;48.594;8.598;2023-11-19T01:05:03;8.00;99.90
16263;DHT22;8239;48.594;8.598;2023-11-19T01:07:30;8.00;99.90
16263;DHT22;8239;48.594;8.598;2023-11-19T01:09:57;8.00;99.90
16263;DHT22;8239;48.594;8.598;2023-11-19T01:12:24;8.00;99.90
16263;DHT22;8239;48.594;8.598;2023-11-19T01:14:51;8.10;99.90
16263;DHT22;8239;48.594;8.598;2023-11-19T01:17:18;8.10;99.90
16263;DHT22;8239;48.594;8.598;2023-11-19T01:19:45;8.10;99.90
16263;DHT22;8239;48.594;8.598;2023-11-19T01:22:13;8.10;99.90
16263;DHT22;8239;48.594;8.598;2023-11-19T01:24:40;8.20;99.90
16263;DHT22;8239;48.594;8.598;2023-11-19T01:27:07;8.20;99.90
16263;DHT22;8239;48.594;8.598;2023-11-19T01:29:34;8.20;99.90
16263;DHT22;8239;48.594;8.598;2023-11-19T01:32:01;8.30;99.90
16263;DHT22;8239;48.594;8.598;2023-11-19T01:34:28;8.30;99.90
16263;DHT22;8239;48.594;8.598;2023-11-19T01:36:55;8.30;99.90
16263;DHT22;8239;48.594;8.598;2023-11-19T01:39:23;8.30;99.90
16263;DHT22;8239;48.594;8.598;2023-11-19T01:41:50;8.40;99.90
16263;DHT22;8239;48.594;8.598;2023-11-19T01:44:17;8.40;99.90
16263;DHT22;8239;48.594;8.598;2023-11-19T01:46:46;8.50;99.90
16263;DHT22;8239;48.594;8.598;2023-11-19T01:49:15;8.50;99.90
16263;DHT22;8239;48.594;8.598;2023-11-19T01:51:44;8.60;99.90
16263;DHT22;8239;48.594;8.598;2023-11-19T01:54:12;8.60;99.90
16263;DHT22;8239;48.594;8.598;2023-11-19T01:56:42;8.60;99.90
16263;DHT22;8239;48.594;8.598;2023-11-19T01:59:10;8.60;99.90
16263;DHT22;8239;48.594;8.598;2023-11-19T02:01:40;8.70;99.90
16263;DHT22;8239;48.594;8.598;2023-11-19T02:04:07;8.70;99.90
16263;DHT22;8239;48.594;8.598;2023-11-19T02:06:34;8.70;99.90
16263;DHT22;8239;48.594;8.598;2023-11-19T02:09:03;8.70;99.90
16263;DHT22;8239;48.594;8.598;2023-11-19T02:11:33;8.70;99.90
16263;DHT22;8239;48.594;8.598;2023-11-19T02:14:01;8.70;99.90
16263;DHT22;8239;48.594;8.598;2023-11-19T02:16:30;8.80;99.90
16263;DHT22;8239;48.594;8.598;2023-11-19T02:18:57;8.80;99.90
16263;DHT22;8239;48.594;8.598;2023-11-19T02:21:23;8.80;99.90
16263;DHT22;8239;48.594;8.598;2023-11-19T02:23:51;8.90;99.90
16263;DHT22;8239;48.594;8.598;2023-11-19T02:26:24;8.90;99.90
16263;DHT22;8239;48.594;8.598;2023-11-19T02:28:55;9.00;99.90
16263;DHT22;8239;48.594;8.598;2023-11-19T02:31:22;9.00;99.90
16263;DHT22;8239;48.594;8.598;2023-11-19T02:33:49;9.00;99.90
16263;DHT22;8239;48.594;8.598;2023-11-19T02:36:17;9.00;99.90
16263;DHT22;8239;48.594;8.598;2023-11-19T02:38:44;9.00;99.90
16263;DHT22;8239;48.594;8.598;2023-11-19T02:41:11;9.00;99.90
16263;DHT22;8239;48.594;8.598;2023-11-19T02:43:38;9.00;99.90
16263;DHT22;8239;48.594;8.598;2023-11-19T02:46:06;9.00;99.90
16263;DHT22;8239;48.594;8.598;2023-11-19T02:48:34;9.00;99.90
16263;DHT22;8239;48.594;8.598;2023-11-19T02:51:01;9.00;99.90
16263;DHT22;8239;48.594;8.598;2023-11-19T02:53:29;9.00;99.90
16263;DHT22;8239;48.594;8.598;2023-11-19T02:55:57;9.00;99.90
16263;DHT22;8239;48.594;8.598;2023-11-19T02:58:35;9.00;99.90
16263;DHT22;8239;48.594;8.598;2023-11-19T03:01:02;9.00;99.90
16263;DHT22;8239;48.594;8.598;2023-11-19T03:03:39;9.00;99.90
16263;DHT22;8239;48.594;8.598;2023-11-19T03:06:07;9.10;99.90
16263;DHT22;8239;48.594;8.598;2023-11-19T03:08:36;9.10;99.90
16263;DHT22;8239;48.594;8.598;2023-11-19T03:11:03;9.10;99.90
16263;DHT22;8239;48.594;8.598;2023-11-19T03:13:31;9.10;99.90
16263;DHT22;8239;48.594;8.598;2023-11-19T03:15:58;9.10;99.90
16263;DHT22;8239;48.594;8.598;2023-11-19T03:18:25;9.10;99.90
16263;DHT22;8239;48.594;8.598;2023-11-19T03:20:53;9.10;99.90
16263;DHT22;8239;48.594;8.598;2023-11-19T03:23:20;9.10;99.90
16263;DHT22;8239;48.594;8.598;2023-11-19T03:25:48;9.10;99.90
16263;DHT22;8239;48.594;8.598;2023-11-19T03:28:15;9.10;99.90
16263;DHT22;8239;48.594;8.598;2023-11-19T03:30:42;9.10;99.90
16263;DHT22;8239;48.594;8.598;2023-11-19T03:33:09;9.10;99.90
16263;DHT22;8239;48.594;8.598;2023-11-19T03:35:36;9.10;99.90
16263;DHT22;8239;48.594;8.598;2023-11-19T03:38:04;9.10;99.90
16263;DHT22;8239;48.594;8.598;2023-11-19T03:40:34;9.10;99.90
16263;DHT22;8239;48.594;8.598;2023-11-19T03:43:01;9.10;99.90
16263;DHT22;8239;48.594;8.598;2023-11-19T03:45:29;9.10;99.90
16263;DHT22;8239;48.594;8.598;2023-11-19T03:47:56;9.10;99.90
16263;DHT22;8239;48.594;8.598;2023-11-19T03:50:23;9.10;99.90
16263;DHT22;8239;48.594;8.598;2023-11-19T03:52:50;9.20;99.90
16263;DHT22;8239;48.594;8.598;2023-11-19T03:55:19;9.20;99.90
16263;DHT22;8239;48.594;8.598;2023-11-19T03:57:46;9.30;99.90
16263;DHT22;8239;48.594;8.598;2023-11-19T04:00:14;9.20;99.90
16263;DHT22;8239;48.594;8.598;2023-11-19T04:02:41;9.30;99.90
16263;DHT22;8239;48.594;8.598;2023-11-19T04:05:08;9.30;99.90
16263;DHT22;8239;48.594;8.598;2023-11-19T04:07:36;9.40;99.90
16263;DHT22;8239;48.594;8.598;2023-11-19T04:10:04;9.40;99.90
16263;DHT22;8239;48.594;8.598;2023-11-19T04:12:32;9.40;99.90
16263;DHT22;8239;48.594;8.598;2023-11-19T04:14:59;9.40;99.90
16263;DHT22;8239;48.594;8.598;2023-11-19T04:17:26;9.40;99.90
16263;DHT22;8239;48.594;8.598;2023-11-19T04:19:53;9.50;99.90
16263;DHT22;8239;48.594;8.598;2023-11-19T04:22:21;9.50;99.90
16263;DHT22;8239;48.594;8.598;2023-11-19T04:24:48;9.50;99.90
16263;DHT22;8239;48.594;8.598;2023-11-19T04:27:15;9.50;99.90
16263;DHT22;8239;48.594;8.598;2023-11-19T04:29:43;9.50;99.90
16263;DHT22;8239;48.594;8.598;2023-11-19T04:32:11;9.60;99.90
16263;DHT22;8239;48.594;8.598;2023-11-19T04:34:38;9.60;99.90
16263;DHT22;8239;48.594;8.598;2023-11-19T04:37:05;9.60;99.90
16263;DHT22;8239;48.594;8.598;2023-11-19T04:39:32;9.60;99.90
16263;DHT22;8239;48.594;8.598;2023-11-19T04:41:59;9.50;99.90
16263;DHT22;8239;48.594;8.598;2023-11-19T04:44:26;9.50;99.90
16263;DHT22;8239;48.594;8.598;2023-11-19T04:46:54;9.60;99.90
16263;DHT22;8239;48.594;8.598;2023-11-19T04:49:23;9.60;99.90
16263;DHT22;8239;48.594;8.598;2023-11-19T04:51:52;9.50;99.90
16263;DHT22;8239;48.594;8.598;2023-11-19T04:54:19;9.50;99.90
16263;DHT22;8239;48.594;8.598;2023-11-19T04:56:46;9.50;99.90
16263;DHT22;8239;48.594;8.598;2023-11-19T04:59:13;9.50;99.90
16263;DHT22;8239;48.594;8.598;2023-11-19T05:01:40;9.50;99.90
16263;DHT22;8239;48.594;8.598;2023-11-19T05:04:08;9.50;99.90
16263;DHT22;8239;48.594;8.598;2023-11-19T05:06:36;9.50;99.90
16263;DHT22;8239;48.594;8.598;2023-11-19T05:09:03;9.50;99.90
16263;DHT22;8239;48.594;8.598;2023-11-19T05:11:33;9.50;99.90
16263;DHT22;8239;48.594;8.598;2023-11-19T05:14:00;9.50;99.90
16263;DHT22;8239;48.594;8.598;2023-11-19T05:16:27;9.50;99.90
16263;DHT22;8239;48.594;8.598;2023-11-19T05:18:53;9.50;99.90
16263;DHT22;8239;48.594;8.598;2023-11-19T05:21:22;9.50;99.90
16263;DHT22;8239;48.594;8.598;2023-11-19T05:23:49;9.50;99.90
16263;DHT22;8239;48.594;8.598;2023-11-19T05:26:20;9.50;99.90
16263;DHT22;8239;48.594;8.598;2023-11-19T05:28:47;9.50;99.90
16263;DHT22;8239;48.594;8.598;2023-11-19T05:31:15;9.50;99.90
16263;DHT22;8239;48.594;8.598;2023-11-19T05:33:42;9.60;99.90
16263;DHT22;8239;48.594;8.598;2023-11-19T05:36:11;9.60;99.90
16263;DHT22;8239;48.594;8.598;2023-11-19T05:38:40;9.60;99.90
16263;DHT22;8239;48.594;8.598;2023-11-19T05:41:06;9.60;99.90
16263;DHT22;8239;48.594;8.598;2023-11-19T05:43:34;9.70;99.90
16263;DHT22;8239;48.594;8.598;2023-11-19T05:46:01;9.70;99.90
16263;DHT22;8239;48.594;8.598;2023-11-19T05:48:28;9.70;99.90
16263;DHT22;8239;48.594;8.598;2023-11-19T05:50:55;9.70;99.90
16263;DHT22;8239;48.594;8.598;2023-11-19T05:53:22;9.70;99.90
16263;DHT22;8239;48.594;8.598;2023-11-19T05:55:51;9.80;99.90
16263;DHT22;8239;48.594;8.598;2023-11-19T05:58:24;9.80;99.90
16263;DHT22;8239;48.594;8.598;2023-11-19T06:00:55;9.80;99.90
16263;DHT22;8239;48.594;8.598;2023-11-19T06:03:22;9.80;99.90
16263;DHT22;8239;48.594;8.598;2023-11-19T06:05:49;9.80;99.90
16263;DHT22;8239;48.594;8.598;2023-11-19T06:08:16;9.80;99.90
16263;DHT22;8239;48.594;8.598;2023-11-19T06:10:45;9.90;99.90
16263;DHT22;8239;48.594;8.598;2023-11-19T06:13:14;9.90;99.90
16263;DHT22;8239;48.594;8.598;2023-11-19T06:15:41;9.90;99.90
16263;DHT22;8239;48.594;8.598;2023-11-19T06:18:09;9.90;99.90
16263;DHT22;8239;48.594;8.598;2023-11-19T06:20:38;9.90;99.90
16263;DHT22;8239;48.594;8.598;2023-11-19T06:23:05;9.90;99.90
16263;DHT22;8239;48.594;8.598;2023-11-19T06:25:32;9.90;99.90
16263;DHT22;8239;48.594;8.598;2023-11-19T06:28:01;10.00;99.90
16263;DHT22;8239;48.594;8.598;2023-11-19T06:30:29;10.00;99.90
16263;DHT22;8239;48.594;8.598;2023-11-19T06:32:58;10.00;99.90
16263;DHT22;8239;48.594;8.598;2023-11-19T06:35:25;10.00;99.90
16263;DHT22;8239;48.594;8.598;2023-11-19T06:37:52;10.00;99.90
16263;DHT22;8239;48.594;8.598;2023-11-19T06:40:19;10.00;99.90
16263;DHT22;8239;48.594;8.598;2023-11-19T06:42:46;10.00;99.90
16263;DHT22;8239;48.594;8.598;2023-11-19T06:45:13;10.00;99.90
16263;DHT22;8239;48.594;8.598;2023-11-19T06:47:41;10.00;99.90
16263;DHT22;8239;48.594;8.598;2023-11-19T06:50:08;10.10;99.90
16263;DHT22;8239;48.594;8.598;2023-11-19T06:52:35;10.10;99.90
16263;DHT22;8239;48.594;8.598;2023-11-19T06:55:03;10.10;99.90
16263;DHT22;8239;48.594;8.598;2023-11-19T06:57:30;10.10;99.90
16263;DHT22;8239;48.594;8.598;2023-11-19T06:59:57;10.00;99.90
16263;DHT22;8239;48.594;8.598;2023-11-19T07:02:25;10.00;99.90
16263;DHT22;8239;48.594;8.598;2023-11-19T07:04:53;10.00;99.90
16263;DHT22;8239;48.594;8.598;2023-11-19T07:07:20;10.10;99.90
16263;DHT22;8239;48.594;8.598;2023-11-19T07:09:47;10.10;99.90
16263;DHT22;8239;48.594;8.598;2023-11-19T07:12:14;10.10;99.90
16263;DHT22;8239;48.594;8.598;2023-11-19T07:14:41;10.10;99.90
16263;DHT22;8239;48.594;8.598;2023-11-19T07:17:08;10.10;99.90
16263;DHT22;8239;48.594;8.598;2023-11-19T07:19:35;10.10;99.90
16263;DHT22;8239;48.594;8.598;2023-11-19T07:22:05;10.10;99.90
16263;DHT22;8239;48.594;8.598;2023-11-19T07:24:33;10.20;99.90
16263;DHT22;8239;48.594;8.598;2023-11-19T07:27:00;10.20;99.90
16263;DHT22;8239;48.594;8.598;2023-11-19T07:29:29;10.30;99.90
16263;DHT22;8239;48.594;8.598;2023-11-19T07:31:57;10.30;99.90
16263;DHT22;8239;48.594;8.598;2023-11-19T07:34:24;10.40;99.90
16263;DHT22;8239;48.594;8.598;2023-11-19T07:36:51;10.50;99.90
16263;DHT22;8239;48.594;8.598;2023-11-19T07:39:19;10.50;99.90
16263;DHT22;8239;48.594;8.598;2023-11-19T07:41:47;10.50;99.90
16263;DHT22;8239;48.594;8.598;2023-11-19T07:44:14;10.50;99.90
16263;DHT22;8239;48.594;8.598;2023-11-19T07:46:41;10.60;99.90
16263;DHT22;8239;48.594;8.598;2023-11-19T07:49:08;10.60;99.90
16263;DHT22;8239;48.594;8.598;2023-11-19T07:51:35;10.70;99.90
16263;DHT22;8239;48.594;8.598;2023-11-19T07:54:03;10.70;99.90
16263;DHT22;8239;48.594;8.598;2023-11-19T07:56:32;10.80;99.90
16263;DHT22;8239;48.594;8.598;2023-11-19T07:58:59;10.80;99.90
16263;DHT22;8239;48.594;8.598;2023-11-19T08:01:26;10.90;99.90
16263;DHT22;8239;48.594;8.598;2023-11-19T08:03:53;11.00;99.90
16263;DHT22;8239;48.594;8.598;2023-11-19T08:06:20;11.10;99.90
16263;DHT22;8239;48.594;8.598;2023-11-19T08:08:48;11.10;99.90
16263;DHT22;8239;48.594;8.598;2023-11-19T08:11:15;11.20;99.90
16263;DHT22;8239;48.594;8.598;2023-11-19T08:13:43;11.20;99.90
16263;DHT22;8239;48.594;8.598;2023-11-19T08:16:10;11.30;99.90
16263;DHT22;8239;48.594;8.598;2023-11-19T08:18:38;11.30;99.90
16263;DHT22;8239;48.594;8.598;2023-11-19T08:21:06;11.30;99.90
16263;DHT22;8239;48.594;8.598;2023-11-19T08:23:33;11.40;99.90
16263;DHT22;8239;48.594;8.598;2023-11-19T08:26:00;11.40;99.90
16263;DHT22;8239;48.594;8.598;2023-11-19T08:28:27;11.60;99.90
16263;DHT22;8239;48.594;8.598;2023-11-19T08:30:56;12.00;99.90
16263;DHT22;8239;48.594;8.598;2023-11-19T08:33:24;12.40;99.90
16263;DHT22;8239;48.594;8.598;2023-11-19T08:35:51;12.80;99.90
16263;DHT22;8239;48.594;8.598;2023-11-19T08:38:19;13.30;99.90
16263;DHT22;8239;48.594;8.598;2023-11-19T08:40:45;13.90;99.90
16263;DHT22;8239;48.594;8.598;2023-11-19T08:43:12;14.80;99.90
16263;DHT22;8239;48.594;8.598;2023-11-19T08:45:39;15.90;99.90
16263;DHT22;8239;48.594;8.598;2023-11-19T08:48:08;16.90;99.90
16263;DHT22;8239;48.594;8.598;2023-11-19T08:50:35;17.70;99.90
16263;DHT22;8239;48.594;8.598;2023-11-19T08:53:02;18.70;99.90
16263;DHT22;8239;48.594;8.598;2023-11-19T08:55:32;19.30;99.90
16263;DHT22;8239;48.594;8.598;2023-11-19T08:57:59;19.80;96.80
16263;DHT22;8239;48.594;8.598;2023-11-19T09:00:26;20.10;96.00
16263;DHT22;8239;48.594;8.598;2023-11-19T09:02:53;20.40;94.10
16263;DHT22;8239;48.594;8.598;2023-11-19T09:05:22;20.70;92.40
16263;DHT22;8239;48.594;8.598;2023-11-19T09:07:49;20.70;90.00
16263;DHT22;8239;48.594;8.598;2023-11-19T09:10:16;21.00;91.40
16263;DHT22;8239;48.594;8.598;2023-11-19T09:12:43;21.50;90.60
16263;DHT22;8239;48.594;8.598;2023-11-19T09:15:10;21.50;88.20
16263;DHT22;8239;48.594;8.598;2023-11-19T09:17:37;21.30;85.80
16263;DHT22;8239;48.594;8.598;2023-11-19T09:20:05;20.90;84.60
16263;DHT22;8239;48.594;8.598;2023-11-19T09:22:34;20.20;87.20
16263;DHT22;8239;48.594;8.598;2023-11-19T09:25:01;20.10;89.90
16263;DHT22;8239;48.594;8.598;2023-11-19T09:27:28;20.30;89.90
16263;DHT22;8239;48.594;8.598;2023-11-19T09:29:55;20.60;90.10
16263;DHT22;8239;48.594;8.598;2023-11-19T09:32:24;20.90;90.00
16263;DHT22;8239;48.594;8.598;2023-11-19T09:34:51;21.00;85.40
16263;DHT22;8239;48.594;8.598;2023-11-19T09:37:18;21.00;83.30
16263;DHT22;8239;48.594;8.598;2023-11-19T09:39:46;21.10;86.40
16263;DHT22;8239;48.594;8.598;2023-11-19T09:42:13;21.40;86.20
16263;DHT22;8239;48.594;8.598;2023-11-19T09:44:42;21.60;83.30
16263;DHT22;8239;48.594;8.598;2023-11-19T09:47:11;22.10;86.90
16263;DHT22;8239;48.594;8.598;2023-11-19T09:49:39;22.50;80.10
16263;DHT22;8239;48.594;8.598;2023-11-19T09:52:07;22.70;80.80
16263;DHT22;8239;48.594;8.598;2023-11-19T09:54:37;23.00;81.90
16263;DHT22;8239;48.594;8.598;2023-11-19T09:57:07;23.30;79.40
16263;DHT22;8239;48.594;8.598;2023-11-19T09:59:37;23.90;79.00
16263;DHT22;8239;48.594;8.598;2023-11-19T10:02:06;24.20;73.50
16263;DHT22;8239;48.594;8.598;2023-11-19T10:04:34;24.00;75.50
16263;DHT22;8239;48.594;8.598;2023-11-19T10:07:02;23.90;71.30
16263;DHT22;8239;48.594;8.598;2023-11-19T10:09:29;23.90;72.60
16263;DHT22;8239;48.594;8.598;2023-11-19T10:11:56;23.80;71.60
16263;DHT22;8239;48.594;8.598;2023-11-19T10:14:24;23.50;69.30
16263;DHT22;8239;48.594;8.598;2023-11-19T10:16:52;23.30;69.70
16263;DHT22;8239;48.594;8.598;2023-11-19T10:19:19;22.90;68.30
16263;DHT22;8239;48.594;8.598;2023-11-19T10:21:46;22.30;70.20
16263;DHT22;8239;48.594;8.598;2023-11-19T10:24:13;22.10;71.70
16263;DHT22;8239;48.594;8.598;2023-11-19T10:26:41;22.30;72.10
16263;DHT22;8239;48.594;8.598;2023-11-19T10:29:08;22.50;70.10
16263;DHT22;8239;48.594;8.598;2023-11-19T10:31:40;22.80;69.90
16263;DHT22;8239;48.594;8.598;2023-11-19T10:34:24;23.10;66.40
16263;DHT22;8239;48.594;8.598;2023-11-19T10:36:52;22.80;67.50
16263;DHT22;8239;48.594;8.598;2023-11-19T10:39:19;22.50;68.20
16263;DHT22;8239;48.594;8.598;2023-11-19T10:41:49;22.60;69.90
16263;DHT22;8239;48.594;8.598;2023-11-19T10:44:31;22.60;67.50
16263;DHT22;8239;48.594;8.598;2023-11-19T10:47:06;22.30;66.10
16263;DHT22;8239;48.594;8.598;2023-11-19T10:49:34;21.90;66.30
16263;DHT22;8239;48.594;8.598;2023-11-19T10:52:03;21.70;70.30
16263;DHT22;8239;48.594;8.598;2023-11-19T10:54:32;22.00;69.90
16263;DHT22;8239;48.594;8.598;2023-11-19T10:57:02;22.50;70.60
16263;DHT22;8239;48.594;8.598;2023-11-19T10:59:31;23.10;68.80
16263;DHT22;8239;48.594;8.598;2023-11-19T11:01:59;23.50;65.30
16263;DHT22;8239;48.594;8.598;2023-11-19T11:04:30;23.70;67.40
16263;DHT22;8239;48.594;8.598;2023-11-19T11:06:59;24.00;66.20
16263;DHT22;8239;48.594;8.598;2023-11-19T11:09:27;24.10;64.70
16263;DHT22;8239;48.594;8.598;2023-11-19T11:11:57;23.90;63.80
16263;DHT22;8239;48.594;8.598;2023-11-19T11:14:26;23.60;64.60
16263;DHT22;8239;48.594;8.598;2023-11-19T11:16:55;23.70;66.30
16263;DHT22;8239;48.594;8.598;2023-11-19T11:19:23;24.00;63.60
16263;DHT22;8239;48.594;8.598;2023-11-19T11:21:54;24.20;64.10
16263;DHT22;8239;48.594;8.598;2023-11-19T11:24:35;24.30;64.50
16263;DHT22;8239;48.594;8.598;2023-11-19T11:30:06;24.50;62.50
16263;DHT22;8239;48.594;8.598;2023-11-19T11:32:42;24.30;62.10
16263;DHT22;8239;48.594;8.598;2023-11-19T11:35:24;24.20;60.70
16263;DHT22;8239;48.594;8.598;2023-11-19T11:38:02;23.70;61.10
16263;DHT22;8239;48.594;8.598;2023-11-19T11:40:30;23.50;61.60
16263;DHT22;8239;48.594;8.598;2023-11-19T11:42:57;23.30;63.30
16263;DHT22;8239;48.594;8.598;2023-11-19T11:45:39;23.10;62.80
16263;DHT22;8239;48.594;8.598;2023-11-19T11:48:12;23.00;61.70
16263;DHT22;8239;48.594;8.598;2023-11-19T11:50:54;22.80;62.40
16263;DHT22;8239;48.594;8.598;2023-11-19T11:53:23;22.60;63.40
16263;DHT22;8239;48.594;8.598;2023-11-19T11:55:55;22.50;63.40
16263;DHT22;8239;48.594;8.598;2023-11-19T11:58:27;22.50;63.00
16263;DHT22;8239;48.594;8.598;2023-11-19T12:00:57;22.70;62.90
16263;DHT22;8239;48.594;8.598;2023-11-19T12:03:28;23.10;62.30
16263;DHT22;8239;48.594;8.598;2023-11-19T12:05:55;23.40;62.20
16263;DHT22;8239;48.594;8.598;2023-11-19T12:08:27;23.70;60.80
16263;DHT22;8239;48.594;8.598;2023-11-19T12:10:56;23.70;59.60
16263;DHT22;8239;48.594;8.598;2023-11-19T12:13:29;23.30;58.60
16263;DHT22;8239;48.594;8.598;2023-11-19T12:16:10;23.10;59.50
16263;DHT22;8239;48.594;8.598;2023-11-19T12:18:40;23.30;61.20
16263;DHT22;8239;48.594;8.598;2023-11-19T12:21:08;23.20;60.60
16263;DHT22;8239;48.594;8.598;2023-11-19T12:23:45;23.10;60.20
16263;DHT22;8239;48.594;8.598;2023-11-19T12:26:34;22.90;61.60
16263;DHT22;8239;48.594;8.598;2023-11-19T12:29:02;22.60;61.90
16263;DHT22;8239;48.594;8.598;2023-11-19T12:31:33;22.60;61.70
16263;DHT22;8239;48.594;8.598;2023-11-19T12:34:08;22.70;60.50
16263;DHT22;8239;48.594;8.598;2023-11-19T12:36:38;22.90;59.10
16263;DHT22;8239;48.594;8.598;2023-11-19T12:39:06;22.90;59.50
16263;DHT22;8239;48.594;8.598;2023-11-19T12:41:49;23.10;59.10
16263;DHT22;8239;48.594;8.598;2023-11-19T12:44:17;23.10;58.00
16263;DHT22;8239;48.594;8.598;2023-11-19T12:46:44;22.40;59.80
16263;DHT22;8239;48.594;8.598;2023-11-19T12:49:11;21.90;61.50
16263;DHT22;8239;48.594;8.598;2023-11-19T12:51:39;22.30;62.60
16263;DHT22;8239;48.594;8.598;2023-11-19T12:54:08;22.70;60.70
16263;DHT22;8239;48.594;8.598;2023-11-19T12:56:35;23.00;59.90
16263;DHT22;8239;48.594;8.598;2023-11-19T12:59:12;23.30;59.30
16263;DHT22;8239;48.594;8.598;2023-11-19T13:01:39;23.50;57.60
16263;DHT22;8239;48.594;8.598;2023-11-19T13:04:17;23.40;58.90
16263;DHT22;8239;48.594;8.598;2023-11-19T13:06:45;23.30;57.70
16263;DHT22;8239;48.594;8.598;2023-11-19T13:09:23;22.80;58.00
16263;DHT22;8239;48.594;8.598;2023-11-19T13:11:51;22.80;58.80
16263;DHT22;8239;48.594;8.598;2023-11-19T13:14:19;23.00;57.80
16263;DHT22;8239;48.594;8.598;2023-11-19T13:16:47;23.30;59.00
16263;DHT22;8239;48.594;8.598;2023-11-19T13:19:14;23.70;58.00
16263;DHT22;8239;48.594;8.598;2023-11-19T13:21:42;23.90;55.30
16263;DHT22;8239;48.594;8.598;2023-11-19T13:24:11;23.80;56.70
16263;DHT22;8239;48.594;8.598;2023-11-19T13:26:39;23.70;55.20
16263;DHT22;8239;48.594;8.598;2023-11-19T13:29:07;23.50;55.60
16263;DHT22;8239;48.594;8.598;2023-11-19T13:31:36;23.70;55.20
16263;DHT22;8239;48.594;8.598;2023-11-19T13:34:03;23.90;55.40
16263;DHT22;8239;48.594;8.598;2023-11-19T13:36:32;24.20;55.30
16263;DHT22;8239;48.594;8.598;2023-11-19T13:39:00;24.60;55.00
16263;DHT22;8239;48.594;8.598;2023-11-19T13:41:27;24.90;53.50
16263;DHT22;8239;48.594;8.598;2023-11-19T13:43:55;24.90;53.40
16263;DHT22;8239;48.594;8.598;2023-11-19T13:46:22;24.90;53.20
16263;DHT22;8239;48.594;8.598;2023-11-19T13:48:50;24.50;53.70
16263;DHT22;8239;48.594;8.598;2023-11-19T13:51:17;23.80;53.90
16263;DHT22;8239;48.594;8.598;2023-11-19T13:53:44;23.20;54.40
16263;DHT22;8239;48.594;8.598;2023-11-19T13:56:11;22.40;55.60
16263;DHT22;8239;48.594;8.598;2023-11-19T13:58:38;21.90;57.00
16263;DHT22;8239;48.594;8.598;2023-11-19T14:01:07;21.60;57.60
16263;DHT22;8239;48.594;8.598;2023-11-19T14:03:34;21.10;57.80
16263;DHT22;8239;48.594;8.598;2023-11-19T14:06:01;20.30;60.00
16263;DHT22;8239;48.594;8.598;2023-11-19T14:08:28;19.10;61.70
16263;DHT22;8239;48.594;8.598;2023-11-19T14:10:55;17.90;64.30
16263;DHT22;8239;48.594;8.598;2023-11-19T14:13:23;17.40;69.80
16263;DHT22;8239;48.594;8.598;2023-11-19T14:15:50;17.60;68.70
16263;DHT22;8239;48.594;8.598;2023-11-19T14:18:19;17.30;67.50
16263;DHT22;8239;48.594;8.598;2023-11-19T14:20:46;16.80;68.50
16263;DHT22;8239;48.594;8.598;2023-11-19T14:23:13;16.10;69.30
16263;DHT22;8239;48.594;8.598;2023-11-19T14:25:40;15.40;71.00
16263;DHT22;8239;48.594;8.598;2023-11-19T14:28:06;15.60;74.20
16263;DHT22;8239;48.594;8.598;2023-11-19T14:30:34;15.70;71.60
16263;DHT22;8239;48.594;8.598;2023-11-19T14:33:01;16.10;72.10
16263;DHT22;8239;48.594;8.598;2023-11-19T14:35:30;16.50;69.70
16263;DHT22;8239;48.594;8.598;2023-11-19T14:37:58;16.60;67.90
16263;DHT22;8239;48.594;8.598;2023-11-19T14:40:25;16.10;67.90
16263;DHT22;8239;48.594;8.598;2023-11-19T14:42:52;15.50;69.30
16263;DHT22;8239;48.594;8.598;2023-11-19T14:45:19;15.10;72.00
16263;DHT22;8239;48.594;8.598;2023-11-19T14:47:47;14.70;74.00
16263;DHT22;8239;48.594;8.598;2023-11-19T14:50:14;14.70;75.40
16263;DHT22;8239;48.594;8.598;2023-11-19T14:52:42;14.50;74.60
16263;DHT22;8239;48.594;8.598;2023-11-19T14:55:09;14.00;75.60
16263;DHT22;8239;48.594;8.598;2023-11-19T14:57:37;13.60;77.20
16263;DHT22;8239;48.594;8.598;2023-11-19T15:00:08;13.10;78.70
16263;DHT22;8239;48.594;8.598;2023-11-19T15:02:39;12.70;79.90
16263;DHT22;8239;48.594;8.598;2023-11-19T15:05:07;12.30;81.30
16263;DHT22;8239;48.594;8.598;2023-11-19T15:07:35;12.10;82.70
16263;DHT22;8239;48.594;8.598;2023-11-19T15:10:06;11.80;84.00
16263;DHT22;8239;48.594;8.598;2023-11-19T15:12:36;11.70;85.40
16263;DHT22;8239;48.594;8.598;2023-11-19T15:15:07;11.50;86.80
16263;DHT22;8239;48.594;8.598;2023-11-19T15:17:35;11.40;88.50
16263;DHT22;8239;48.594;8.598;2023-11-19T15:20:03;11.30;90.20
16263;DHT22;8239;48.594;8.598;2023-11-19T15:22:30;11.20;91.00
16263;DHT22;8239;48.594;8.598;2023-11-19T15:24:57;11.00;91.90
16263;DHT22;8239;48.594;8.598;2023-11-19T15:27:26;11.00;93.00
16263;DHT22;8239;48.594;8.598;2023-11-19T15:29:53;11.00;94.00
16263;DHT22;8239;48.594;8.598;2023-11-19T15:32:20;10.90;95.00
16263;DHT22;8239;48.594;8.598;2023-11-19T15:34:46;10.80;96.00
16263;DHT22;8239;48.594;8.598;2023-11-19T15:37:14;10.70;97.00
16263;DHT22;8239;48.594;8.598;2023-11-19T15:57:45;10.20;99.90
16263;DHT22;8239;48.594;8.598;2023-11-19T16:00:13;10.20;99.90
16263;DHT22;8239;48.594;8.598;2023-11-19T16:02:42;10.20;99.90
16263;DHT22;8239;48.594;8.598;2023-11-19T16:05:10;10.20;99.90
16263;DHT22;8239;48.594;8.598;2023-11-19T16:07:37;10.20;99.90
16263;DHT22;8239;48.594;8.598;2023-11-19T16:10:05;10.20;99.90
16263;DHT22;8239;48.594;8.598;2023-11-19T16:12:35;10.20;99.90
16263;DHT22;8239;48.594;8.598;2023-11-19T16:15:04;10.20;99.90
16263;DHT22;8239;48.594;8.598;2023-11-19T16:17:31;10.30;99.90
16263;DHT22;8239;48.594;8.598;2023-11-19T16:20:00;10.30;99.90